Terminal Aerodrome Forecast
Issued by NWS Memphis, TN

Home | Current Version | Previous Version | Text Only | Print | Product List | Glossary On
Versions: 1 2 3 4 5 6 7 8 9 10 11 12 13 14 15
687
FTUS44 KMEG 241130
TAFMKL
TAF
KMKL 241130Z 2412/2512 17010G20KT P6SM FEW250
      TEMPO 2412/2414 OVC025
     FM241400 18012G20KT P6SM OVC025
     FM242000 18014G22KT P6SM BKN035 OVC250
     FM250000 17010G17KT P6SM BKN060 OVC150
     FM250800 18015G25KT P6SM VCTS BKN060CB OVC150
      TEMPO 2509/2512 2SM TSRA OVC025CB=

USA.gov is the U.S. government's official web portal to all federal, state and local government web resources and services.